Time;durP1;ratioP1;P1;durP2;ratioP2;P2;SDS_P1;SDS_P2;PMS_P1;PMS_P2;Temp;Humidity;BMP_temperature;BMP_pressure;BME280_temperature;BME280_humidity;BME280_pressure;Samples;Min_cycle;Max_cycle;Signal;HPM_P1;HPM_P2
2022/07/23 00:01:19;;;;;;;0.30;0.30;;;;;;;14.93;100.00;100940.56;5046520;28;20032;-84
2022/07/23 00:03:45;;;;;;;0.20;0.20;;;;;;;15.02;100.00;100960.16;5026004;28;20031;-84
2022/07/23 00:06:11;;;;;;;0.43;0.30;;;;;;;15.05;100.00;100962.47;5045767;28;20037;-84
2022/07/23 00:08:36;;;;;;;0.20;0.20;;;;;;;15.04;100.00;100960.81;5062407;28;20063;-85
2022/07/23 00:11:02;;;;;;;0.30;0.30;;;;;;;15.03;100.00;100951.00;5044763;28;20451;-84
2022/07/23 00:13:28;;;;;;;0.20;0.20;;;;;;;15.02;100.00;100949.34;5043462;28;20086;-83
2022/07/23 00:15:55;;;;;;;0.20;0.20;;;;;;;14.98;100.00;100939.94;5010920;28;20425;-84
2022/07/23 00:18:20;;;;;;;0.20;0.20;;;;;;;14.98;100.00;100945.34;5040662;28;20063;-82
2022/07/23 00:20:46;;;;;;;0.20;0.20;;;;;;;15.04;100.00;100952.69;5031293;28;20055;-82
2022/07/23 00:23:12;;;;;;;0.20;0.20;;;;;;;15.03;100.00;100951.00;5030488;28;20037;-82
2022/07/23 00:25:38;;;;;;;0.20;0.20;;;;;;;14.98;100.00;100935.38;5038831;28;20094;-83
2022/07/23 00:28:04;;;;;;;0.20;0.20;;;;;;;15.00;100.00;100940.56;5045661;28;20032;-84
2022/07/23 00:30:30;;;;;;;0.30;0.30;;;;;;;15.02;100.00;100933.09;5049549;28;20567;-82
2022/07/23 00:33:01;;;;;;;0.30;0.30;;;;;;;15.02;100.00;100930.38;5034833;28;20029;-84
2022/07/23 00:35:30;;;;;;;0.20;0.20;;;;;;;15.03;100.00;100932.03;5033220;28;20025;-82
2022/07/23 00:37:57;;;;;;;0.20;0.20;;;;;;;15.02;100.00;100924.97;5029319;28;20033;-82
2022/07/23 00:40:23;;;;;;;0.20;0.20;;;;;;;15.01;100.00;100924.13;5029920;28;20036;-83
2022/07/23 00:42:49;;;;;;;0.43;0.43;;;;;;;14.98;100.00;100919.13;5029784;28;20036;-83
2022/07/23 00:45:14;;;;;;;0.20;0.20;;;;;;;15.03;100.00;100923.91;5043214;28;20114;-84
2022/07/23 00:47:40;;;;;;;0.20;0.20;;;;;;;15.03;100.00;100916.66;5053250;28;20036;-82
2022/07/23 00:50:07;;;;;;;0.30;0.30;;;;;;;15.03;100.00;100904.97;5037089;28;20111;-83
2022/07/23 00:52:35;;;;;;;0.20;0.20;;;;;;;14.87;100.00;100877.22;5031365;28;20090;-83
2022/07/23 00:55:01;;;;;;;0.32;0.32;;;;;;;15.00;100.00;100887.25;5026808;28;20047;-83
2022/07/23 00:57:26;;;;;;;0.30;0.30;;;;;;;15.06;100.00;100902.69;5016504;28;20119;-82
2022/07/23 00:59:52;;;;;;;0.20;0.20;;;;;;;15.06;100.00;100891.03;5028331;28;20127;-83
2022/07/23 01:02:18;;;;;;;0.52;0.52;;;;;;;15.04;100.00;100887.69;5046373;28;20027;-83
2022/07/23 01:04:43;;;;;;;0.20;0.20;;;;;;;15.05;100.00;100887.47;5038519;28;20135;-83
2022/07/23 01:07:09;;;;;;;0.38;0.38;;;;;;;15.07;100.00;100882.69;5043478;28;20040;-84
2022/07/23 01:09:36;;;;;;;0.20;0.20;;;;;;;15.01;100.00;100869.97;5038815;28;20044;-83
2022/07/23 01:12:03;;;;;;;0.30;0.30;;;;;;;15.09;100.00;100867.09;5029319;28;20032;-83
2022/07/23 01:14:28;;;;;;;0.30;0.30;;;;;;;15.07;100.00;100869.16;5018684;28;20028;-81
2022/07/23 01:16:54;;;;;;;0.20;0.20;;;;;;;15.10;100.00;100867.91;5062688;28;20030;-83
2022/07/23 01:19:20;;;;;;;0.30;0.30;;;;;;;15.09;100.00;100858.97;5053455;28;20063;-83
2022/07/23 01:21:51;;;;;;;0.20;0.20;;;;;;;15.15;100.00;100863.56;5042581;28;20115;-82
2022/07/23 01:24:19;;;;;;;0.20;0.20;;;;;;;14.98;100.00;100839.75;5018836;28;20090;-82
2022/07/23 01:26:46;;;;;;;0.20;0.20;;;;;;;15.13;100.00;100859.38;5056553;28;20164;-82
2022/07/23 01:29:12;;;;;;;0.28;0.28;;;;;;;15.14;100.00;100861.06;5058015;28;20036;-83
2022/07/23 01:31:39;;;;;;;0.20;0.20;;;;;;;15.12;100.00;100858.56;5040612;28;20032;-84
2022/07/23 01:34:06;;;;;;;0.20;0.20;;;;;;;15.11;100.00;100847.91;5036205;28;20048;-81
2022/07/23 01:36:31;;;;;;;0.30;0.30;;;;;;;15.06;100.00;100836.88;5065352;28;20031;-81
2022/07/23 01:38:57;;;;;;;0.20;0.20;;;;;;;15.14;100.00;100853.78;5048254;28;20036;-82
2022/07/23 01:41:22;;;;;;;0.20;0.20;;;;;;;15.09;100.00;100850.00;5034099;28;20028;-82
2022/07/23 01:43:48;;;;;;;0.20;0.20;;;;;;;15.07;100.00;100841.25;5049168;28;20045;-82
2022/07/23 01:46:14;;;;;;;0.30;0.30;;;;;;;15.04;100.00;100836.25;5046075;28;20020;-83
2022/07/23 01:48:39;;;;;;;0.20;0.20;;;;;;;14.97;100.00;100827.25;5030737;28;20041;-83
2022/07/23 01:51:05;;;;;;;0.20;0.20;;;;;;;14.99;100.00;100826.00;5026565;28;20024;-83
2022/07/23 01:53:31;;;;;;;0.20;0.20;;;;;;;14.98;100.00;100818.94;5033667;28;20037;-83
2022/07/23 01:55:58;;;;;;;0.20;0.20;;;;;;;14.97;100.00;100819.13;5024608;28;20246;-83
2022/07/23 01:58:25;;;;;;;0.20;0.20;;;;;;;14.95;100.00;100822.03;5032772;28;20047;-82
2022/07/23 02:00:50;;;;;;;0.20;0.20;;;;;;;14.94;100.00;100820.38;5013545;28;20471;-82
2022/07/23 02:03:16;;;;;;;0.20;0.20;;;;;;;14.95;100.00;100822.88;5036242;28;20039;-81
2022/07/23 02:05:42;;;;;;;0.20;0.20;;;;;;;14.94;100.00;100825.78;5039581;28;20028;-83
2022/07/23 02:08:07;;;;;;;0.30;0.30;;;;;;;14.86;100.00;100815.97;5025696;28;20064;-82
2022/07/23 02:10:33;;;;;;;0.20;0.20;;;;;;;14.89;100.00;100823.69;5027367;28;20119;-82
2022/07/23 02:12:59;;;;;;;0.20;0.20;;;;;;;14.87;100.00;100814.94;5024512;28;20432;-81
2022/07/23 02:15:24;;;;;;;0.10;0.10;;;;;;;14.86;100.00;100817.84;5058203;28;20070;-81
2022/07/23 02:17:50;;;;;;;0.20;0.20;;;;;;;14.80;100.00;100808.66;5022110;28;20039;-82
2022/07/23 02:20:16;;;;;;;0.50;0.50;;;;;;;14.79;100.00;100812.41;5024316;28;20045;-80
2022/07/23 02:22:41;;;;;;;0.20;0.20;;;;;;;14.73;100.00;100805.91;5040649;28;20059;-81
2022/07/23 02:25:08;;;;;;;0.20;0.20;;;;;;;14.66;100.00;100785.28;5011117;28;20036;-81
2022/07/23 02:27:34;;;;;;;0.20;0.20;;;;;;;14.73;100.00;100796.97;5018288;28;20036;-81
2022/07/23 02:30:00;;;;;;;0.28;0.28;;;;;;;14.69;100.00;100788.44;5048826;28;20028;-81
2022/07/23 02:32:29;;;;;;;0.20;0.20;;;;;;;14.69;100.00;100790.31;5010970;28;20044;-80
2022/07/23 02:34:54;;;;;;;0.20;0.20;;;;;;;14.70;100.00;100789.25;5040035;28;20032;-82
2022/07/23 02:37:20;;;;;;;0.20;0.20;;;;;;;14.71;100.00;100789.06;5037514;28;20039;-81
2022/07/23 02:39:48;;;;;;;0.20;0.20;;;;;;;14.75;100.00;100791.38;5039860;28;20466;-80
2022/07/23 02:42:15;;;;;;;0.20;0.20;;;;;;;14.75;100.00;100783.25;5023694;28;20036;-81
2022/07/23 02:44:41;;;;;;;0.20;0.20;;;;;;;14.77;100.00;100781.19;5028248;28;20040;-81
2022/07/23 02:47:06;;;;;;;0.28;0.28;;;;;;;14.78;100.00;100772.84;5035332;28;20037;-80
2022/07/23 02:49:32;;;;;;;0.20;0.20;;;;;;;14.79;100.00;100766.41;5030029;28;20032;-81
2022/07/23 02:51:58;;;;;;;0.20;0.20;;;;;;;14.82;100.00;100768.69;5021849;28;20170;-81
2022/07/23 02:54:23;;;;;;;0.20;0.20;;;;;;;14.80;100.00;100765.34;5023628;28;20297;-81
2022/07/23 02:56:51;;;;;;;0.20;0.20;;;;;;;14.80;100.00;100770.75;5038447;28;20032;-81
2022/07/23 02:59:17;;;;;;;0.20;0.20;;;;;;;14.67;100.00;100740.94;5035876;28;20033;-81
2022/07/23 03:01:43;;;;;;;0.20;0.20;;;;;;;14.79;100.00;100763.69;5022172;28;20071;-81
2022/07/23 03:04:09;;;;;;;0.20;0.20;;;;;;;14.78;100.00;100753.06;5037978;28;20036;-81
2022/07/23 03:06:34;;;;;;;0.20;0.20;;;;;;;14.78;100.00;100744.94;5031762;28;20474;-80
2022/07/23 03:09:00;;;;;;;0.20;0.20;;;;;;;14.79;100.00;100750.16;5007692;28;20061;-80
2022/07/23 03:11:26;;;;;;;0.20;0.20;;;;;;;14.78;100.00;100743.06;5057888;28;20082;-80
2022/07/23 03:13:51;;;;;;;0.20;0.20;;;;;;;14.80;100.00;100734.75;5028884;28;20032;-79
2022/07/23 03:16:17;;;;;;;0.20;0.20;;;;;;;14.78;100.00;100732.22;5025821;28;20067;-80
2022/07/23 03:18:45;;;;;;;0.20;0.20;;;;;;;14.78;100.00;100726.00;5040583;28;20033;-79
2022/07/23 03:21:10;;;;;;;0.20;0.20;;;;;;;14.79;100.00;100727.66;5052012;28;20060;-79
2022/07/23 03:23:36;;;;;;;0.30;0.30;;;;;;;14.79;100.00;100717.69;5040394;28;20072;-80
2022/07/23 03:26:02;;;;;;;0.50;0.50;;;;;;;14.81;100.00;100712.88;5044806;28;20033;-79
2022/07/23 03:28:27;;;;;;;0.20;0.20;;;;;;;14.78;100.00;100705.16;5013340;28;20024;-80
2022/07/23 03:30:53;;;;;;;0.20;0.20;;;;;;;14.79;100.00;100709.56;5044007;28;20471;-79
2022/07/23 03:33:19;;;;;;;0.20;0.20;;;;;;;14.83;100.00;100708.09;5029785;28;20032;-78
2022/07/23 03:35:46;;;;;;;0.20;0.20;;;;;;;14.83;100.00;100708.09;5006893;28;20125;-80
2022/07/23 03:38:12;;;;;;;0.20;0.20;;;;;;;14.79;100.00;100689.75;5038989;28;20021;-80
2022/07/23 03:40:37;;;;;;;0.20;0.20;;;;;;;14.86;100.00;100693.31;5012441;28;20355;-79
2022/07/23 03:43:03;;;;;;;0.20;0.20;;;;;;;14.87;100.00;100690.41;5004514;28;20124;-79
2022/07/23 03:45:28;;;;;;;0.20;0.20;;;;;;;14.86;100.00;100691.44;5026044;28;20036;-80
2022/07/23 03:47:54;;;;;;;0.20;0.20;;;;;;;14.88;100.00;100692.06;5024381;28;20024;-78
2022/07/23 03:50:20;;;;;;;0.30;0.30;;;;;;;14.91;100.00;100680.81;5022163;28;20086;-79
2022/07/23 03:52:45;;;;;;;0.20;0.20;;;;;;;14.90;100.00;100676.47;5015597;28;20044;-79
2022/07/23 03:55:11;;;;;;;0.30;0.30;;;;;;;14.95;100.00;100665.84;5040035;28;20051;-80
2022/07/23 03:57:37;;;;;;;0.30;0.30;;;;;;;14.98;100.00;100658.34;5036724;28;20037;-79
2022/07/23 04:00:05;;;;;;;0.20;0.20;;;;;;;15.02;100.00;100667.72;5046438;28;20056;-80
2022/07/23 04:02:31;;;;;;;0.28;0.28;;;;;;;15.06;100.00;100667.09;5012160;28;20036;-80
2022/07/23 04:04:57;;;;;;;0.30;0.30;;;;;;;15.06;100.00;100661.69;5036944;28;20036;-79
2022/07/23 04:07:22;;;;;;;0.30;0.30;;;;;;;15.10;100.00;100662.94;5030170;28;20539;-80
2022/07/23 04:09:48;;;;;;;0.20;0.20;;;;;;;15.12;100.00;100654.59;5019780;28;20497;-79
2022/07/23 04:12:14;;;;;;;0.30;0.30;;;;;;;15.08;100.00;100642.50;5041019;28;20047;-81
2022/07/23 04:14:40;;;;;;;0.30;0.30;;;;;;;15.13;100.00;100643.53;5051819;28;20113;-81
2022/07/23 04:17:05;;;;;;;0.30;0.30;;;;;;;15.16;100.00;100634.16;5041599;28;20111;-80
2022/07/23 04:19:31;;;;;;;0.50;0.50;;;;;;;15.16;100.00;100635.03;5022819;28;20028;-79
2022/07/23 04:21:57;;;;;;;0.20;0.20;;;;;;;15.18;100.00;100634.81;5014385;28;21590;-80
2022/07/23 04:24:22;;;;;;;0.20;0.20;;;;;;;15.24;100.00;100638.53;5020441;28;20509;-80
2022/07/23 04:26:48;;;;;;;0.30;0.30;;;;;;;15.19;100.00;100620.25;5016469;28;20544;-79
2022/07/23 04:29:14;;;;;;;0.20;0.20;;;;;;;15.25;100.00;100618.56;5030673;28;20029;-80
2022/07/23 04:31:39;;;;;;;0.30;0.30;;;;;;;15.30;100.00;100618.78;5035842;28;20041;-81
2022/07/23 04:34:05;;;;;;;0.20;0.20;;;;;;;15.30;100.00;100608.75;5056361;28;20550;-80
2022/07/23 04:36:30;;;;;;;0.20;0.20;;;;;;;15.31;100.00;100602.28;5051659;28;20111;-79
2022/07/23 04:38:56;;;;;;;0.20;0.20;;;;;;;15.34;100.00;100603.75;5017302;28;20024;-79
2022/07/23 04:41:22;;;;;;;0.30;0.30;;;;;;;15.37;100.00;100606.03;5033749;28;20394;-80
2022/07/23 04:43:47;;;;;;;0.20;0.20;;;;;;;15.34;100.00;100601.84;5046955;28;20460;-81
2022/07/23 04:46:13;;;;;;;0.20;0.20;;;;;;;15.35;100.00;100595.41;5017141;28;20025;-80
2022/07/23 04:48:39;;;;;;;0.20;0.20;;;;;;;15.34;100.00;100599.16;5044245;28;20673;-80
2022/07/23 04:51:05;;;;;;;0.20;0.20;;;;;;;15.31;100.00;100588.75;5049838;28;20118;-80
2022/07/23 04:53:31;;;;;;;0.30;0.30;;;;;;;15.40;100.00;100605.63;5026476;28;20028;-80
2022/07/23 04:55:57;;;;;;;0.35;0.35;;;;;;;15.45;100.00;100596.84;5054268;28;20040;-81
2022/07/23 04:58:23;;;;;;;0.20;0.20;;;;;;;15.44;100.00;100597.91;5045037;28;20043;-80
2022/07/23 05:00:49;;;;;;;0.20;0.20;;;;;;;15.49;100.00;100595.38;5064501;28;20029;-80
2022/07/23 05:03:15;;;;;;;0.20;0.20;;;;;;;15.49;100.00;100584.56;5025664;28;20036;-81
2022/07/23 05:05:41;;;;;;;0.30;0.30;;;;;;;15.51;100.00;100587.88;5028360;28;20394;-81
2022/07/23 05:08:06;;;;;;;0.30;0.30;;;;;;;15.53;100.00;100591.19;5045079;28;20044;-80
2022/07/23 05:10:32;;;;;;;0.20;0.20;;;;;;;15.55;100.00;100586.41;5043686;28;20486;-81
2022/07/23 05:13:01;;;;;;;0.20;0.20;;;;;;;15.57;100.00;100585.13;5025342;28;20039;-80
2022/07/23 05:15:33;;;;;;;0.20;0.20;;;;;;;15.58;100.00;100581.38;5045456;28;20115;-80
2022/07/23 05:17:58;;;;;;;0.25;0.25;;;;;;;15.59;100.00;100579.53;5016639;28;20064;-81
2022/07/23 05:20:25;;;;;;;0.22;0.22;;;;;;;15.60;100.00;100582.00;5040948;28;20021;-80
2022/07/23 05:22:57;;;;;;;0.20;0.20;;;;;;;15.64;100.00;100577.00;5024496;28;20041;-80
2022/07/23 05:25:22;;;;;;;0.20;0.20;;;;;;;15.62;100.00;100568.25;5023444;28;20055;-80
2022/07/23 05:27:50;;;;;;;0.20;0.20;;;;;;;15.69;100.00;100568.25;5037658;28;20029;-81
2022/07/23 05:30:16;;;;;;;0.20;0.20;;;;;;;15.72;100.00;100568.66;5023722;28;20037;-80
2022/07/23 05:32:42;;;;;;;0.20;0.20;;;;;;;15.74;100.00;100561.13;5025478;28;20047;-81
2022/07/23 05:35:08;;;;;;;0.20;0.20;;;;;;;15.79;100.00;100557.78;5026196;28;20074;-81
2022/07/23 05:37:34;;;;;;;0.20;0.20;;;;;;;15.80;100.00;100565.72;5026652;28;20040;-81
2022/07/23 05:40:02;;;;;;;0.30;0.30;;;;;;;15.81;100.00;100536.72;5023317;28;20112;-79
2022/07/23 05:42:27;;;;;;;0.20;0.20;;;;;;;15.88;100.00;100542.09;5027358;28;20171;-79
2022/07/23 05:44:53;;;;;;;0.20;0.20;;;;;;;15.96;100.00;100545.41;5006452;28;20047;-79
2022/07/23 05:47:18;;;;;;;0.38;0.38;;;;;;;16.02;100.00;100543.72;5040324;28;20471;-81
2022/07/23 05:49:44;;;;;;;0.30;0.30;;;;;;;16.05;100.00;100535.13;5037061;28;20052;-81
2022/07/23 05:52:10;;;;;;;0.20;0.20;;;;;;;16.11;100.00;100542.38;5024767;28;20072;-80
2022/07/23 05:54:35;;;;;;;0.20;0.20;;;;;;;16.15;100.00;100540.91;5026529;28;20028;-80
2022/07/23 05:57:02;;;;;;;0.30;0.30;;;;;;;16.12;100.00;100525.09;5059604;28;20051;-80
2022/07/23 05:59:28;;;;;;;0.28;0.28;;;;;;;16.21;100.00;100536.50;5021312;28;20031;-80
2022/07/23 06:01:54;;;;;;;0.20;0.20;;;;;;;16.22;100.00;100527.28;5015079;28;20040;-79
2022/07/23 06:04:19;;;;;;;0.20;0.20;;;;;;;16.12;100.00;100514.22;5044270;28;20032;-80
2022/07/23 06:06:45;;;;;;;0.20;0.20;;;;;;;16.21;100.00;100515.63;5008705;28;20036;-80
2022/07/23 06:09:16;;;;;;;0.20;0.20;;;;;;;16.23;100.00;100516.25;5025487;28;20048;-80
2022/07/23 06:11:41;;;;;;;0.20;0.20;;;;;;;16.29;100.00;100509.09;5009925;28;20082;-80
2022/07/23 06:14:07;;;;;;;0.20;0.20;;;;;;;16.29;100.00;100492.00;5040938;28;20047;-80
2022/07/23 06:16:33;;;;;;;0.30;0.30;;;;;;;16.34;100.00;100509.28;5042468;28;20044;-80
2022/07/23 06:18:58;;;;;;;0.20;0.20;;;;;;;16.41;100.00;100510.06;5009127;28;20043;-80
2022/07/23 06:21:24;;;;;;;0.25;0.25;;;;;;;16.47;100.00;100506.47;5030334;28;20474;-79
2022/07/23 06:23:49;;;;;;;0.20;0.20;;;;;;;16.54;100.00;100502.84;5031943;28;20483;-78
2022/07/23 06:26:15;;;;;;;0.22;0.22;;;;;;;16.65;100.00;100507.59;5064115;28;20066;-80
2022/07/23 06:28:41;;;;;;;0.20;0.20;;;;;;;16.60;100.00;100488.41;5005546;28;20043;-80
2022/07/23 06:31:07;;;;;;;0.35;0.35;;;;;;;16.78;100.00;100499.34;5058072;28;20033;-79
2022/07/23 06:33:33;;;;;;;0.30;0.30;;;;;;;16.90;100.00;100481.25;5053022;28;20035;-79
2022/07/23 06:35:59;;;;;;;0.30;0.30;;;;;;;17.02;100.00;100489.50;5025193;28;20043;-79
2022/07/23 06:38:24;;;;;;;0.20;0.20;;;;;;;17.13;100.00;100491.47;5026845;28;20422;-79
2022/07/23 06:40:51;;;;;;;0.30;0.30;;;;;;;17.11;100.00;100468.31;5033424;28;20024;-80
2022/07/23 06:43:16;;;;;;;0.30;0.30;;;;;;;17.25;100.00;100472.53;5037557;28;20032;-80
2022/07/23 06:45:42;;;;;;;0.40;0.40;;;;;;;17.49;100.00;100470.78;5022228;28;20125;-80
2022/07/23 06:48:07;;;;;;;0.63;0.50;;;;;;;17.89;100.00;100477.59;5004006;28;20074;-80
2022/07/23 06:50:34;;;;;;;0.40;0.40;;;;;;;18.11;100.00;100476.03;5025001;28;20128;-79
2022/07/23 06:53:00;;;;;;;0.30;0.30;;;;;;;18.02;100.00;100485.59;5024981;28;20255;-80
2022/07/23 06:55:25;;;;;;;0.30;0.30;;;;;;;18.09;100.00;100488.19;5075644;28;20028;-79
2022/07/23 06:57:51;;;;;;;0.32;0.32;;;;;;;18.28;100.00;100478.88;5044478;28;20036;-79
2022/07/23 07:00:17;;;;;;;0.85;0.70;;;;;;;18.48;100.00;100485.94;5014430;28;20482;-79
2022/07/23 07:02:42;;;;;;;0.40;0.40;;;;;;;18.46;100.00;100469.81;5048957;28;20078;-78
2022/07/23 07:05:08;;;;;;;0.40;0.40;;;;;;;18.45;100.00;100489.94;5064702;28;20082;-79
2022/07/23 07:07:34;;;;;;;0.50;0.50;;;;;;;18.27;100.00;100485.41;5047975;28;20505;-79
2022/07/23 07:10:00;;;;;;;0.60;0.45;;;;;;;18.00;100.00;100482.25;5030865;28;20549;-79
2022/07/23 07:12:26;;;;;;;0.77;0.77;;;;;;;17.89;100.00;100475.72;5031496;28;20028;-79
2022/07/23 07:14:53;;;;;;;2.63;1.52;;;;;;;17.94;100.00;100455.97;5018599;28;20052;-79
2022/07/23 07:17:19;;;;;;;1.58;1.08;;;;;;;18.08;100.00;100457.44;5060198;28;20085;-79
2022/07/23 07:19:48;;;;;;;3.13;1.40;;;;;;;18.09;100.00;100461.81;5058729;28;20032;-80
2022/07/23 07:22:14;;;;;;;3.33;2.10;;;;;;;18.05;100.00;100449.75;5036615;28;20391;-79
2022/07/23 07:24:40;;;;;;;3.13;2.03;;;;;;;18.06;100.00;100450.56;5045363;28;20047;-82
2022/07/23 07:27:06;;;;;;;2.15;1.48;;;;;;;18.04;100.00;100429.03;5031990;28;20035;-80
2022/07/23 07:29:31;;;;;;;1.17;0.73;;;;;;;18.22;100.00;100453.44;5043419;28;20028;-80
2022/07/23 07:31:57;;;;;;;1.13;0.80;;;;;;;18.33;100.00;100443.63;5016613;28;20577;-79
2022/07/23 07:34:26;;;;;;;1.52;1.10;;;;;;;18.31;100.00;100461.25;5041649;28;20040;-80
2022/07/23 07:36:51;;;;;;;0.60;0.60;;;;;;;18.12;100.00;100455.06;5066314;28;20043;-79
2022/07/23 07:39:17;;;;;;;0.75;0.55;;;;;;;17.83;100.00;100449.44;5014008;28;20881;-80
2022/07/23 07:41:43;;;;;;;1.23;0.85;;;;;;;17.50;100.00;100444.44;5029288;28;20063;-80
2022/07/23 07:44:08;;;;;;;1.10;0.80;;;;;;;17.20;100.00;100447.94;5045957;28;20386;-80
2022/07/23 07:46:34;;;;;;;0.82;0.60;;;;;;;17.07;100.00;100427.19;5038384;28;20462;-80
2022/07/23 07:48:59;;;;;;;0.60;0.60;;;;;;;17.33;100.00;100442.34;5050861;28;20048;-81
2022/07/23 07:51:26;;;;;;;0.40;0.40;;;;;;;17.52;100.00;100450.47;5032330;28;20382;-81
2022/07/23 07:53:54;;;;;;;0.45;0.45;;;;;;;17.57;100.00;100450.59;5045975;28;20040;-80
2022/07/23 07:56:20;;;;;;;0.85;0.70;;;;;;;17.62;100.00;100434.41;5045408;28;20111;-80
2022/07/23 07:58:45;;;;;;;1.00;0.80;;;;;;;17.65;100.00;100453.00;5017079;28;20067;-81
2022/07/23 08:01:11;;;;;;;0.30;0.30;;;;;;;17.70;100.00;100441.44;5018884;28;20068;-82
2022/07/23 08:03:37;;;;;;;0.40;0.40;;;;;;;17.97;100.00;100444.66;5047523;28;20123;-81
2022/07/23 08:06:02;;;;;;;0.47;0.47;;;;;;;18.11;100.00;100450.72;5066623;28;20032;-80
2022/07/23 08:08:30;;;;;;;0.80;0.52;;;;;;;18.15;100.00;100451.88;5036565;28;20051;-82
2022/07/23 08:10:56;;;;;;;1.02;0.90;;;;;;;18.06;100.00;100434.25;5029411;28;20124;-80
2022/07/23 08:13:21;;;;;;;0.40;0.40;;;;;;;18.53;100.00;100443.31;5028937;28;20024;-80
2022/07/23 08:15:52;;;;;;;0.65;0.65;;;;;;;19.36;100.00;100440.50;5060227;28;20033;-81
2022/07/23 08:18:18;;;;;;;0.40;0.40;;;;;;;19.86;100.00;100446.16;5067139;28;20055;-80
2022/07/23 08:20:44;;;;;;;0.68;0.68;;;;;;;19.76;100.00;100435.03;5045971;28;20226;-81
2022/07/23 08:23:11;;;;;;;0.30;0.30;;;;;;;19.51;100.00;100441.66;5028382;28;20040;-80
2022/07/23 08:25:39;;;;;;;0.50;0.50;;;;;;;19.42;100.00;100443.09;5047716;28;20139;-80
2022/07/23 08:28:10;;;;;;;0.40;0.40;;;;;;;19.82;100.00;100438.69;5018445;28;20032;-81
2022/07/23 08:30:37;;;;;;;0.60;0.60;;;;;;;19.98;100.00;100437.91;5059270;28;20602;-80
2022/07/23 08:33:10;;;;;;;0.50;0.50;;;;;;;20.67;100.00;100439.59;5045373;28;20024;-81
2022/07/23 08:35:46;;;;;;;0.40;0.40;;;;;;;20.95;100.00;100420.31;5048538;28;20041;-81
2022/07/23 08:38:14;;;;;;;0.43;0.43;;;;;;;20.89;100.00;100440.47;5050649;28;20541;-81
2022/07/23 08:40:41;;;;;;;0.40;0.40;;;;;;;20.72;100.00;100434.19;5044187;28;20107;-82
2022/07/23 08:43:09;;;;;;;0.50;0.50;;;;;;;20.44;100.00;100430.47;5015893;28;20619;-81
2022/07/23 08:45:40;;;;;;;0.40;0.40;;;;;;;20.16;100.00;100437.69;5015687;28;20029;-81
2022/07/23 08:48:11;;;;;;;0.40;0.40;;;;;;;19.94;100.00;100425.81;5047850;28;20498;-81
2022/07/23 08:50:37;;;;;;;0.40;0.40;;;;;;;20.10;100.00;100425.00;5013521;28;20057;-80
2022/07/23 08:53:05;;;;;;;0.45;0.45;;;;;;;20.19;100.00;100415.34;5035155;28;20029;-81
2022/07/23 08:55:31;;;;;;;0.50;0.50;;;;;;;20.15;100.00;100416.91;5040427;28;20036;-79
2022/07/23 08:57:57;;;;;;;0.77;0.77;;;;;;;20.07;100.00;100397.41;5068222;28;20029;-80
2022/07/23 09:00:23;;;;;;;0.60;0.50;;;;;;;20.36;100.00;100411.78;5030901;28;20467;-81
2022/07/23 09:02:50;;;;;;;0.70;0.50;;;;;;;20.30;100.00;100404.59;5033872;28;20043;-82
2022/07/23 09:05:16;;;;;;;0.45;0.45;;;;;;;20.30;100.00;100410.06;5049975;28;20118;-80
2022/07/23 09:08:13;;;;;;;0.77;0.60;;;;;;;20.59;100.00;100413.53;5051340;28;20052;-79
2022/07/23 09:10:59;;;;;;;1.15;0.73;;;;;;;20.65;100.00;100404.34;5028683;28;20033;-80
2022/07/23 09:13:34;;;;;;;0.60;0.50;;;;;;;20.63;100.00;100412.78;5052318;28;20036;-80
2022/07/23 09:16:12;;;;;;;0.50;0.50;;;;;;;20.79;100.00;100407.53;5053401;28;20094;-80
2022/07/23 09:18:58;;;;;;;2.13;0.70;;;;;;;20.76;100.00;100413.50;5056674;28;20037;-80
2022/07/23 09:21:30;;;;;;;0.93;0.70;;;;;;;20.73;100.00;100412.09;5053755;28;20031;-79
2022/07/23 09:24:09;;;;;;;0.60;0.50;;;;;;;20.98;100.00;100413.53;5019879;28;20094;-80
2022/07/23 09:26:44;;;;;;;1.10;0.82;;;;;;;20.95;100.00;100395.72;5018944;28;20028;-80
2022/07/23 09:29:17;;;;;;;1.20;0.50;;;;;;;21.09;100.00;100407.13;5022315;28;20032;-80
2022/07/23 09:31:51;;;;;;;1.23;0.70;;;;;;;21.35;100.00;100402.75;5053405;28;20028;-82
2022/07/23 09:34:19;;;;;;;1.25;0.70;;;;;;;21.32;100.00;100407.94;5049493;28;20033;-83
2022/07/23 09:36:44;;;;;;;1.40;0.80;;;;;;;21.35;100.00;100405.50;5053654;28;20039;-81
2022/07/23 09:39:11;;;;;;;1.10;0.80;;;;;;;21.45;100.00;100369.28;5014326;28;20048;-80
2022/07/23 09:41:42;;;;;;;0.80;0.73;;;;;;;21.85;100.00;100398.94;5035421;28;20101;-80
2022/07/23 09:44:14;;;;;;;3.42;0.93;;;;;;;21.93;100.00;100408.59;5046139;28;20035;-82
2022/07/23 09:46:40;;;;;;;2.25;0.73;;;;;;;21.98;100.00;100402.34;5057559;28;20037;-82
2022/07/23 09:49:16;;;;;;;0.73;0.73;;;;;;;21.93;100.00;100398.47;5039578;28;20116;-81
2022/07/23 09:51:47;;;;;;;0.60;0.60;;;;;;;21.95;100.00;100407.25;5014734;28;20446;-83
2022/07/23 09:54:32;;;;;;;0.70;0.60;;;;;;;21.63;100.00;100385.34;5036618;28;20028;-82
2022/07/23 09:57:26;;;;;;;2.08;0.90;;;;;;;21.46;100.00;100401.00;5033333;28;20098;-82
2022/07/23 09:59:52;;;;;;;0.70;0.70;;;;;;;21.42;100.00;100413.56;5047090;28;20068;-82
2022/07/23 10:02:18;;;;;;;2.78;0.80;;;;;;;21.34;100.00;100401.13;5028017;28;20045;-82
2022/07/23 10:04:44;;;;;;;1.65;0.73;;;;;;;21.27;100.00;100395.03;5036940;28;20386;-83
2022/07/23 10:07:10;;;;;;;0.82;0.65;;;;;;;21.29;100.00;100409.28;5037097;28;20035;-82
2022/07/23 10:09:39;;;;;;;0.68;0.60;;;;;;;21.12;100.00;100403.03;5035114;28;20823;-82
2022/07/23 10:14:40;;;;;;;0.80;0.70;;;;;;;21.03;100.00;100405.38;5053338;28;20046;-82
2022/07/23 10:17:06;;;;;;;0.73;0.70;;;;;;;20.99;100.00;100415.19;5054362;28;20025;-82
2022/07/23 10:19:32;;;;;;;1.55;0.93;;;;;;;21.02;100.00;100412.78;5030594;28;20390;-81
2022/07/23 10:22:08;;;;;;;1.13;0.70;;;;;;;21.02;100.00;100409.22;5023846;28;20489;-82
2022/07/23 10:24:47;;;;;;;0.82;0.77;;;;;;;20.92;100.00;100407.16;5059631;28;20078;-81
2022/07/23 10:27:50;;;;;;;1.00;0.80;;;;;;;20.85;100.00;100401.06;5031716;28;20036;-81
2022/07/23 10:30:52;;;;;;;0.60;0.60;;;;;;;20.99;100.00;100388.69;5044789;28;20478;-82
2022/07/23 10:33:45;;;;;;;2.15;0.90;;;;;;;21.15;100.00;100386.16;5046157;28;20097;-81
2022/07/23 10:36:27;;;;;;;3.13;0.90;;;;;;;21.26;100.00;100387.91;5044079;28;20043;-81
2022/07/23 10:39:07;;;;;;;1.90;0.80;;;;;;;21.33;100.00;100393.16;5014414;28;20542;-82
2022/07/23 10:41:41;;;;;;;2.10;0.90;;;;;;;21.39;100.00;100390.28;5014296;28;20352;-81
2022/07/23 10:44:20;;;;;;;0.75;0.70;;;;;;;21.54;100.00;100384.16;5046084;28;20474;-82
2022/07/23 10:49:42;;;;;;;2.10;0.90;;;;;;;21.48;100.00;100390.63;5033805;28;20089;-82
2022/07/23 10:52:14;;;;;;;1.10;0.95;;;;;;;21.42;100.00;100397.97;5033511;28;20115;-82
2022/07/23 10:54:57;;;;;;;0.90;0.80;;;;;;;21.55;100.00;100395.91;5047745;28;20045;-83
2022/07/23 10:57:27;;;;;;;2.25;0.82;;;;;;;21.76;100.00;100394.22;5033109;28;20112;-82
2022/07/23 11:00:11;;;;;;;0.80;0.80;;;;;;;21.84;100.00;100377.31;5030043;28;20033;-82
2022/07/23 11:02:39;;;;;;;1.05;0.82;;;;;;;22.00;100.00;100378.28;5029967;28;20068;-83
2022/07/23 11:05:06;;;;;;;3.75;1.30;;;;;;;22.23;100.00;100377.97;5016811;28;20033;-83
2022/07/23 11:07:32;;;;;;;2.63;1.30;;;;;;;22.49;100.00;100383.59;5025782;28;20379;-82
2022/07/23 11:09:58;;;;;;;1.40;1.30;;;;;;;22.45;100.00;100372.34;5031734;28;20033;-83
2022/07/23 11:12:30;;;;;;;1.20;1.05;;;;;;;22.43;100.00;100374.53;5041375;28;20093;-82
2022/07/23 11:15:01;;;;;;;1.92;1.17;;;;;;;22.49;100.00;100383.59;5056746;28;20052;-82
2022/07/23 11:17:28;;;;;;;1.70;1.15;;;;;;;22.81;99.93;100378.03;5062592;28;20064;-83
2022/07/23 11:20:09;;;;;;;2.75;1.42;;;;;;;22.90;97.44;100349.03;5031374;28;20042;-82
2022/07/23 11:22:39;;;;;;;1.83;1.33;;;;;;;23.75;94.00;100369.88;5043985;28;20036;-82
2022/07/23 11:25:05;;;;;;;4.05;1.00;;;;;;;24.24;90.78;100363.81;5032453;28;20093;-81